Castro Verd, Portugal
Current Conditions -  °F | °C
As of 7:00 AM on Monday 22 Dec 2014 (Local Time) from LPBJ Reporting Station
Light Fog Light Fog  
Wind Chill:   Ceiling: Unl
Heat Index:   Visibility: 5mi
Dew Point:   Wind: 8mph
Humidity: 100%   Direction: 110°ESE
Pressure: 30.36"   Gusts: NA
Location:  37.7°N, 8.08°W
Report Text: LPBJ 220700Z 11007KT 8000 BCFG NSC 06/06 Q1028
Loading
Personal Weather Stations






























Interactive Weather Map New forecast layout! Learn more

10-Day Weather Forecast

Advertisements
Track Severe Weather on mobile